createdAt,value
2023-01-25T00:00:31.751Z,8.80
2023-01-25T00:03:00.983Z,8.90
2023-01-25T00:05:28.059Z,10.65
2023-01-25T00:07:55.095Z,9.80
2023-01-25T00:10:24.203Z,11.73
2023-01-25T00:12:51.207Z,8.38
2023-01-25T00:15:18.199Z,8.20
2023-01-25T00:17:45.179Z,9.23
2023-01-25T00:20:12.286Z,8.38
2023-01-25T00:22:39.352Z,7.07
2023-01-25T00:25:06.905Z,10.07
2023-01-25T00:27:34.226Z,7.93
2023-01-25T00:30:01.305Z,7.00
2023-01-25T00:32:41.398Z,9.38
2023-01-25T00:35:12.548Z,8.07
2023-01-25T00:37:46.849Z,7.45
2023-01-25T00:40:14.004Z,9.45
2023-01-25T00:42:41.755Z,8.15
2023-01-25T00:45:13.460Z,7.78
2023-01-25T00:47:40.649Z,9.70
2023-01-25T00:50:08.606Z,7.78
2023-01-25T00:52:35.637Z,10.85
2023-01-25T00:55:03.596Z,11.38
2023-01-25T00:57:31.397Z,8.73
2023-01-25T00:59:58.464Z,7.68
2023-01-25T01:02:25.582Z,9.75
2023-01-25T01:04:56.735Z,9.75
2023-01-25T01:07:23.871Z,9.85
2023-01-25T01:09:52.509Z,6.65
2023-01-25T01:12:19.567Z,11.68
2023-01-25T01:14:46.663Z,8.18
2023-01-25T01:17:13.672Z,9.35
2023-01-25T01:19:40.728Z,11.55
2023-01-25T01:22:08.104Z,9.07
2023-01-25T01:24:35.152Z,10.00
2023-01-25T01:27:03.300Z,10.50
2023-01-25T01:29:30.330Z,11.55
2023-01-25T01:31:59.980Z,14.43
2023-01-25T01:34:27.357Z,9.13
2023-01-25T01:36:55.369Z,9.85
2023-01-25T01:39:23.163Z,13.07
2023-01-25T01:41:50.499Z,8.20
2023-01-25T01:44:20.490Z,9.27
2023-01-25T01:46:57.538Z,10.57
2023-01-25T01:49:31.849Z,10.13
2023-01-25T01:52:17.460Z,11.40
2023-01-25T01:54:53.528Z,8.27
2023-01-25T01:57:30.485Z,13.35
2023-01-25T02:00:04.827Z,9.52
2023-01-25T02:02:41.047Z,9.98
2023-01-25T02:05:17.662Z,9.13
2023-01-25T02:07:47.218Z,9.07
2023-01-25T02:10:14.654Z,9.00
2023-01-25T02:12:45.724Z,9.98
2023-01-25T02:15:12.908Z,8.55
2023-01-25T02:17:41.813Z,12.55
2023-01-25T02:20:23.498Z,10.18
2023-01-25T02:23:20.807Z,9.93
2023-01-25T02:25:48.649Z,8.93
2023-01-25T02:28:47.353Z,10.18
2023-01-25T02:31:14.858Z,9.35
2023-01-25T02:33:42.582Z,8.30
2023-01-25T02:36:17.311Z,10.30
2023-01-25T02:38:54.769Z,10.45
2023-01-25T02:41:28.584Z,10.40
2023-01-25T02:43:55.765Z,9.45
2023-01-25T02:46:29.621Z,8.57
2023-01-25T02:48:58.459Z,12.10
2023-01-25T02:51:31.000Z,11.95
2023-01-25T02:53:58.734Z,9.30
2023-01-25T02:56:25.944Z,8.95
2023-01-25T02:58:53.442Z,8.98
2023-01-25T03:01:21.471Z,10.02
2023-01-25T03:03:48.902Z,7.93
2023-01-25T03:06:16.605Z,9.63
2023-01-25T03:08:43.843Z,11.45
2023-01-25T03:11:11.024Z,8.82
2023-01-25T03:13:38.833Z,9.27
2023-01-25T03:16:09.883Z,10.75
2023-01-25T03:18:39.922Z,8.05
2023-01-25T03:21:08.712Z,10.45
2023-01-25T03:23:36.149Z,7.80
2023-01-25T03:26:53.521Z,8.73
2023-01-25T03:29:24.202Z,8.70
2023-01-25T03:31:51.422Z,10.35
2023-01-25T03:34:18.586Z,9.43
2023-01-25T03:36:45.668Z,8.77
2023-01-25T03:39:13.012Z,9.43
2023-01-25T03:41:43.739Z,11.25
2023-01-25T03:44:13.728Z,8.43
2023-01-25T03:46:42.983Z,8.95
2023-01-25T03:49:11.641Z,8.93
2023-01-25T03:51:41.122Z,10.00
2023-01-25T03:54:08.514Z,10.45
2023-01-25T03:56:37.866Z,10.38
2023-01-25T03:59:12.705Z,9.38
2023-01-25T04:01:40.162Z,7.72
2023-01-25T04:04:07.984Z,10.20
2023-01-25T04:06:35.750Z,8.52
2023-01-25T04:09:03.937Z,10.75
2023-01-25T04:11:37.879Z,9.30
2023-01-25T04:14:05.530Z,9.52
2023-01-25T04:16:43.645Z,8.93
2023-01-25T04:19:31.565Z,9.55
2023-01-25T04:22:01.268Z,10.23
2023-01-25T04:24:33.775Z,9.32
2023-01-25T04:27:02.984Z,8.18
2023-01-25T04:29:40.904Z,9.07
2023-01-25T04:32:10.569Z,7.78
2023-01-25T04:34:38.457Z,8.95
2023-01-25T04:37:09.898Z,11.13
2023-01-25T04:39:46.853Z,10.60
2023-01-25T04:42:13.939Z,9.65
2023-01-25T04:44:41.371Z,10.98
2023-01-25T04:47:08.699Z,9.57
2023-01-25T04:49:35.788Z,8.68
2023-01-25T04:52:06.208Z,8.93
2023-01-25T04:54:33.270Z,8.70
2023-01-25T04:57:00.813Z,10.48
2023-01-25T04:59:27.936Z,12.57
2023-01-25T05:01:55.450Z,11.65
2023-01-25T05:04:22.623Z,15.10
2023-01-25T05:06:51.601Z,12.15
2023-01-25T05:09:18.776Z,10.43
2023-01-25T05:11:46.937Z,9.02
2023-01-25T05:14:33.467Z,13.77
2023-01-25T05:17:01.238Z,12.13
2023-01-25T05:19:29.508Z,8.00
2023-01-25T05:22:07.464Z,14.95
2023-01-25T05:24:41.827Z,8.18
2023-01-25T05:27:13.221Z,10.65
2023-01-25T05:29:56.006Z,8.27
2023-01-25T05:32:43.252Z,9.70
2023-01-25T05:35:10.762Z,11.82
2023-01-25T05:37:41.263Z,13.32
2023-01-25T05:42:45.284Z,12.90
2023-01-25T05:45:17.167Z,10.45
2023-01-25T05:47:46.481Z,9.48
2023-01-25T05:50:16.733Z,10.70
2023-01-25T05:52:53.174Z,12.73
2023-01-25T05:55:23.395Z,14.25
2023-01-25T05:57:58.021Z,10.70
2023-01-25T06:00:25.135Z,10.20
2023-01-25T06:02:52.293Z,11.90
2023-01-25T06:05:23.664Z,12.52
2023-01-25T06:07:52.827Z,11.60
2023-01-25T06:10:22.592Z,10.57
2023-01-25T06:12:51.379Z,11.38
2023-01-25T06:15:18.438Z,9.70
2023-01-25T06:17:45.532Z,8.65
2023-01-25T06:20:27.533Z,10.57
2023-01-25T06:23:20.994Z,10.60
2023-01-25T06:25:47.973Z,12.32
2023-01-25T06:28:18.084Z,11.68
2023-01-25T06:30:45.129Z,9.05
2023-01-25T06:33:12.291Z,10.27
2023-01-25T06:35:40.580Z,13.27
2023-01-25T06:38:07.688Z,10.68
2023-01-25T06:40:34.746Z,10.50
2023-01-25T06:43:11.263Z,11.50
2023-01-25T06:45:41.184Z,10.05
2023-01-25T06:48:08.153Z,8.80
2023-01-25T06:50:35.199Z,11.70
2023-01-25T06:53:02.329Z,8.38
2023-01-25T06:55:29.393Z,10.77
2023-01-25T06:58:00.812Z,11.45
2023-01-25T07:00:27.933Z,8.32
2023-01-25T07:02:54.963Z,10.55
2023-01-25T07:05:22.223Z,11.70
2023-01-25T07:07:49.209Z,9.75
2023-01-25T07:10:16.344Z,7.85
2023-01-25T07:12:43.618Z,9.63
2023-01-25T07:15:11.115Z,9.55
2023-01-25T07:17:38.386Z,8.40
2023-01-25T07:20:05.885Z,10.40
2023-01-25T07:22:34.792Z,6.97
2023-01-25T07:25:02.365Z,16.13
2023-01-25T07:27:34.115Z,10.13
2023-01-25T07:30:01.704Z,9.50
2023-01-25T07:32:31.153Z,10.70
2023-01-25T07:34:58.110Z,10.07
2023-01-25T07:37:27.862Z,11.50
2023-01-25T07:42:25.417Z,7.90
2023-01-25T07:45:08.149Z,8.23
2023-01-25T07:47:37.155Z,11.52
2023-01-25T07:50:05.276Z,9.68
2023-01-25T07:52:32.311Z,9.38
2023-01-25T07:54:59.607Z,13.50
2023-01-25T07:57:28.752Z,13.23
2023-01-25T07:59:55.873Z,12.50
2023-01-25T08:02:23.155Z,8.65
2023-01-25T08:04:51.396Z,13.85
2023-01-25T08:07:20.242Z,9.57
2023-01-25T08:09:47.783Z,13.32
2023-01-25T08:12:17.432Z,12.93
2023-01-25T08:14:44.649Z,11.48
2023-01-25T08:17:11.648Z,13.65
2023-01-25T08:19:38.702Z,9.48
2023-01-25T08:22:08.160Z,10.52
2023-01-25T08:24:35.212Z,9.35
2023-01-25T08:27:02.241Z,10.30
2023-01-25T08:29:29.398Z,9.88
2023-01-25T08:31:56.520Z,9.68
2023-01-25T08:34:23.633Z,9.90
2023-01-25T08:39:19.814Z,11.55
2023-01-25T08:41:46.806Z,9.43
2023-01-25T08:44:13.897Z,12.27
2023-01-25T08:46:40.966Z,9.05
2023-01-25T08:49:10.859Z,10.77
2023-01-25T08:51:37.915Z,7.63
2023-01-25T08:54:07.763Z,10.65
2023-01-25T08:56:40.462Z,10.70
2023-01-25T08:59:08.626Z,10.25
2023-01-25T09:01:35.847Z,14.15
2023-01-25T09:04:03.026Z,9.40
2023-01-25T09:06:30.342Z,13.90
2023-01-25T09:09:00.308Z,12.57
2023-01-25T09:11:27.429Z,9.68
2023-01-25T09:13:54.600Z,9.00
2023-01-25T09:16:28.570Z,11.85
2023-01-25T09:19:01.465Z,9.43
2023-01-25T09:21:29.138Z,8.45
2023-01-25T09:24:05.847Z,10.70
2023-01-25T09:26:35.889Z,10.48
2023-01-25T09:29:03.439Z,9.45
2023-01-25T09:31:31.002Z,11.52
2023-01-25T09:34:16.653Z,11.63
2023-01-25T09:36:44.308Z,11.73
2023-01-25T09:39:14.848Z,10.68
2023-01-25T09:42:06.613Z,9.43
2023-01-25T09:44:50.434Z,9.98
2023-01-25T09:47:29.367Z,11.73
2023-01-25T09:50:05.019Z,11.93
2023-01-25T09:52:47.268Z,15.43
2023-01-25T09:55:18.113Z,13.25
2023-01-25T09:57:48.179Z,11.65
2023-01-25T10:00:28.409Z,15.98
2023-01-25T10:03:14.255Z,10.55
2023-01-25T10:05:50.618Z,15.10
2023-01-25T10:08:20.844Z,12.57
2023-01-25T10:10:52.638Z,13.18
2023-01-25T10:13:24.065Z,12.80
2023-01-25T10:15:56.186Z,10.57
2023-01-25T10:18:32.657Z,11.70
2023-01-25T10:21:04.331Z,14.18
2023-01-25T10:23:34.249Z,10.63
2023-01-25T10:26:21.856Z,12.43
2023-01-25T10:28:56.077Z,7.75
2023-01-25T10:31:36.631Z,9.50
2023-01-25T10:34:20.655Z,9.90
2023-01-25T10:37:01.610Z,9.90
2023-01-25T10:39:30.531Z,9.73
2023-01-25T10:42:09.352Z,10.18
2023-01-25T10:44:37.366Z,9.07
2023-01-25T10:47:04.406Z,8.25
2023-01-25T10:49:55.134Z,10.60
2023-01-25T10:52:25.551Z,10.68
2023-01-25T10:55:26.318Z,12.45
2023-01-25T10:58:00.589Z,8.27
2023-01-25T11:00:30.797Z,10.80
2023-01-25T11:02:58.928Z,10.02
2023-01-25T11:05:27.460Z,12.15
2023-01-25T11:07:54.921Z,10.85
2023-01-25T11:10:33.965Z,10.18
2023-01-25T11:13:19.537Z,12.30
2023-01-25T11:16:01.983Z,15.38
2023-01-25T11:18:35.349Z,12.35
2023-01-25T11:21:26.290Z,15.82
2023-01-25T11:24:11.598Z,14.10
2023-01-25T11:26:40.254Z,10.43
2023-01-25T11:29:14.917Z,12.35
2023-01-25T11:31:50.300Z,13.77
2023-01-25T11:34:21.531Z,10.82
2023-01-25T11:37:17.307Z,10.05
2023-01-25T11:40:13.276Z,10.25
2023-01-25T11:42:50.571Z,9.45
2023-01-25T11:45:23.271Z,12.48
2023-01-25T11:48:08.684Z,12.48
2023-01-25T11:50:47.269Z,11.20
2023-01-25T11:53:38.720Z,10.88
2023-01-25T11:56:22.083Z,11.60
2023-01-25T11:59:17.219Z,11.43
2023-01-25T12:02:10.120Z,9.55
2023-01-25T12:04:37.133Z,10.48
2023-01-25T12:07:09.562Z,12.23
2023-01-25T12:09:39.153Z,12.63
2023-01-25T12:12:19.827Z,10.30
2023-01-25T12:15:07.684Z,10.43
2023-01-25T12:17:50.827Z,9.88
2023-01-25T12:20:42.450Z,10.48
2023-01-25T12:23:35.232Z,9.98
2023-01-25T12:26:27.343Z,13.80
2023-01-25T12:29:04.654Z,12.80
2023-01-25T12:31:39.545Z,12.45
2023-01-25T12:34:20.135Z,13.15
2023-01-25T12:36:49.665Z,11.52
2023-01-25T12:39:34.233Z,14.18
2023-01-25T12:42:12.271Z,12.57
2023-01-25T12:44:52.665Z,15.80
2023-01-25T12:47:36.458Z,10.48
2023-01-25T12:50:15.044Z,10.43
2023-01-25T12:52:55.077Z,14.48
2023-01-25T12:55:22.225Z,12.02
2023-01-25T12:58:07.793Z,11.77
2023-01-25T13:00:59.514Z,13.38
2023-01-25T13:03:32.544Z,13.85
2023-01-25T13:06:05.671Z,12.05
2023-01-25T13:08:44.791Z,10.68
2023-01-25T13:11:43.003Z,15.13
2023-01-25T13:14:16.031Z,11.90
2023-01-25T13:16:50.191Z,15.73
2023-01-25T13:19:31.013Z,14.40
2023-01-25T13:21:59.495Z,11.25
2023-01-25T13:24:32.127Z,16.40
2023-01-25T13:27:23.211Z,12.63
2023-01-25T13:30:16.297Z,11.07
2023-01-25T13:32:52.211Z,11.70
2023-01-25T13:35:48.705Z,10.93
2023-01-25T13:38:25.235Z,9.30
2023-01-25T13:41:12.394Z,14.13
2023-01-25T13:43:42.443Z,19.02
2023-01-25T13:46:14.337Z,13.50
2023-01-25T13:48:55.759Z,16.42
2023-01-25T13:51:23.247Z,14.45
2023-01-25T13:53:58.865Z,12.65
2023-01-25T13:56:34.896Z,20.33
2023-01-25T13:59:02.322Z,13.30
2023-01-25T14:01:32.231Z,16.48
2023-01-25T14:04:02.571Z,13.57
2023-01-25T14:06:37.241Z,13.73
2023-01-25T14:09:10.789Z,12.93
2023-01-25T14:11:46.341Z,15.20
2023-01-25T14:14:28.887Z,14.30
2023-01-25T14:17:18.801Z,15.63
2023-01-25T14:19:51.793Z,17.08
2023-01-25T14:22:26.455Z,18.92
2023-01-25T14:25:11.930Z,13.88
2023-01-25T14:27:44.566Z,14.13
2023-01-25T14:30:25.962Z,16.55
2023-01-25T14:35:54.753Z,15.32
2023-01-25T14:38:45.367Z,9.48
2023-01-25T14:41:16.990Z,13.50
2023-01-25T14:43:47.617Z,14.63
2023-01-25T14:46:39.003Z,14.05
2023-01-25T14:49:13.217Z,14.30
2023-01-25T14:51:48.511Z,10.48
2023-01-25T14:54:27.596Z,14.48
2023-01-25T15:34:29.572Z,21.03
2023-01-25T15:36:59.095Z,19.02
2023-01-25T15:39:27.366Z,21.90
2023-01-25T15:41:54.361Z,17.70
2023-01-25T15:44:21.544Z,21.10
2023-01-25T15:46:51.581Z,16.35
2023-01-25T15:49:25.139Z,17.92
2023-01-25T15:51:52.231Z,14.32
2023-01-25T15:54:19.232Z,13.77
2023-01-25T15:56:51.098Z,15.45
2023-01-25T15:59:19.003Z,15.65
2023-01-25T16:01:46.290Z,15.18
2023-01-25T16:04:16.322Z,18.50
2023-01-25T16:06:52.442Z,14.32
2023-01-25T16:09:21.512Z,17.85
2023-01-25T16:11:52.206Z,17.45
2023-01-25T16:14:19.701Z,18.83
2023-01-25T16:16:51.878Z,15.35
2023-01-25T16:19:22.068Z,17.02
2023-01-25T16:21:49.498Z,16.30
2023-01-25T16:24:17.248Z,18.63
2023-01-25T16:26:55.519Z,15.35
2023-01-25T16:29:23.471Z,17.58
2023-01-25T16:31:51.193Z,12.48
2023-01-25T16:34:18.377Z,16.00
2023-01-25T16:36:50.318Z,15.32
2023-01-25T16:39:20.360Z,17.20
2023-01-25T16:41:48.713Z,15.77
2023-01-25T16:44:18.352Z,14.95
2023-01-25T16:46:47.532Z,20.67
2023-01-25T16:49:18.404Z,15.45
2023-01-25T16:51:47.607Z,16.25
2023-01-25T16:54:15.508Z,15.90
2023-01-25T16:56:44.921Z,13.60
2023-01-25T16:59:12.218Z,14.88
2023-01-25T17:01:41.453Z,14.98
2023-01-25T17:04:11.905Z,12.77
2023-01-25T17:06:42.957Z,16.80
2023-01-25T17:09:22.972Z,17.27
2023-01-25T17:11:51.928Z,12.73
2023-01-25T17:14:29.979Z,14.00
2023-01-25T17:16:59.345Z,15.27
2023-01-25T17:19:26.328Z,10.75
2023-01-25T17:21:53.415Z,10.77
2023-01-25T17:24:21.949Z,14.10
2023-01-25T17:26:49.158Z,11.73
2023-01-25T17:29:16.248Z,13.57
2023-01-25T17:31:44.610Z,15.68
2023-01-25T17:34:16.207Z,16.13
2023-01-25T17:36:44.048Z,21.92
2023-01-25T17:39:15.842Z,15.88
2023-01-25T17:41:44.753Z,16.88
2023-01-25T17:44:12.240Z,16.77
2023-01-25T17:46:39.341Z,21.92
2023-01-25T17:49:10.745Z,14.68
2023-01-25T17:51:43.156Z,15.32
2023-01-25T17:54:11.715Z,14.43
2023-01-25T17:56:39.749Z,16.10
2023-01-25T17:59:09.128Z,17.80
2023-01-25T18:01:38.404Z,14.50
2023-01-25T18:04:09.055Z,13.02
2023-01-25T18:06:36.635Z,16.20
2023-01-25T18:09:06.342Z,13.88
2023-01-25T18:14:04.360Z,13.98
2023-01-25T18:16:41.490Z,19.83
2023-01-25T18:19:09.104Z,15.32
2023-01-25T18:21:40.787Z,17.02
2023-01-25T18:24:25.453Z,14.75
2023-01-25T18:26:59.353Z,19.45
2023-01-25T18:29:50.281Z,22.27
2023-01-25T18:32:17.399Z,18.17
2023-01-25T18:34:44.517Z,16.83
2023-01-25T18:37:25.801Z,13.93
2023-01-25T18:39:54.890Z,18.33
2023-01-25T18:42:24.754Z,15.70
2023-01-25T18:44:52.005Z,14.73
2023-01-25T18:47:22.822Z,18.15
2023-01-25T18:49:51.724Z,15.55
2023-01-25T18:52:20.871Z,14.60
2023-01-25T18:54:48.049Z,18.60
2023-01-25T18:57:18.107Z,17.10
2023-01-25T18:59:45.496Z,16.63
2023-01-25T19:02:14.856Z,12.23
2023-01-25T19:04:42.546Z,19.48
2023-01-25T19:07:09.568Z,17.35
2023-01-25T19:09:36.649Z,15.23
2023-01-25T19:12:04.121Z,15.73
2023-01-25T19:14:31.201Z,15.02
2023-01-25T19:16:58.222Z,20.90
2023-01-25T19:19:25.419Z,26.13
2023-01-25T19:21:52.412Z,15.82
2023-01-25T19:24:20.906Z,19.95
2023-01-25T19:26:47.955Z,16.65
2023-01-25T19:29:15.572Z,16.63
2023-01-25T19:31:42.609Z,16.08
2023-01-25T19:34:09.777Z,16.73
2023-01-25T19:36:38.985Z,11.45
2023-01-25T19:39:10.176Z,18.50
2023-01-25T19:41:39.523Z,20.40
2023-01-25T19:44:12.385Z,17.63
2023-01-25T19:46:39.827Z,14.80
2023-01-25T19:49:10.622Z,25.17
2023-01-25T19:51:41.494Z,20.17
2023-01-25T19:54:17.976Z,15.65
2023-01-25T19:56:47.256Z,16.02
2023-01-25T19:59:17.348Z,13.57
2023-01-25T20:01:44.829Z,17.38
2023-01-25T20:04:14.199Z,13.88
2023-01-25T20:06:41.530Z,18.15
2023-01-25T20:09:15.285Z,16.38
2023-01-25T20:11:42.381Z,18.63
2023-01-25T20:14:12.887Z,13.23
2023-01-25T20:16:40.536Z,20.02
2023-01-25T20:19:12.099Z,13.15
2023-01-25T20:21:40.028Z,15.68
2023-01-25T20:24:09.904Z,15.43
2023-01-25T20:29:09.777Z,12.88
2023-01-25T20:31:41.072Z,11.55
2023-01-25T20:34:20.598Z,15.20
2023-01-25T20:36:49.244Z,14.95
2023-01-25T20:39:19.315Z,13.50
2023-01-25T20:41:47.245Z,10.70
2023-01-25T20:44:15.886Z,14.52
2023-01-25T20:46:43.826Z,15.07
2023-01-25T20:49:15.328Z,23.08
2023-01-25T20:51:45.682Z,15.88
2023-01-25T20:54:12.751Z,10.57
2023-01-25T20:56:39.852Z,15.30
2023-01-25T20:59:06.858Z,12.50
2023-01-25T21:01:39.063Z,17.38
2023-01-25T21:04:08.135Z,12.60
2023-01-25T21:06:35.966Z,17.33
2023-01-25T21:09:04.124Z,17.30
2023-01-25T21:11:31.824Z,17.23
2023-01-25T21:13:59.737Z,18.38
2023-01-25T21:16:27.251Z,16.30
2023-01-25T21:18:57.605Z,14.90
2023-01-25T21:21:30.615Z,14.73
2023-01-25T21:24:00.303Z,10.07
2023-01-25T21:26:32.735Z,16.15
2023-01-25T21:29:03.089Z,14.93
2023-01-25T21:31:33.047Z,15.05
2023-01-25T21:34:01.111Z,15.55
2023-01-25T21:36:28.348Z,19.08
2023-01-25T21:38:55.873Z,16.85
2023-01-25T21:41:25.811Z,16.45
2023-01-25T21:44:16.005Z,18.10
2023-01-25T21:46:49.243Z,12.48
2023-01-25T21:49:41.550Z,15.80
2023-01-25T21:52:08.625Z,15.13
2023-01-25T21:54:37.244Z,19.17
2023-01-25T21:57:09.710Z,14.00
2023-01-25T21:59:38.116Z,15.60
2023-01-25T22:02:07.613Z,15.18
2023-01-25T22:04:38.141Z,14.02
2023-01-25T22:07:07.852Z,16.83
2023-01-25T22:09:35.035Z,14.13
2023-01-25T22:12:02.151Z,14.30
2023-01-25T22:14:29.456Z,13.73
2023-01-25T22:16:56.465Z,15.20
2023-01-25T22:19:23.753Z,15.50
2023-01-25T22:21:50.849Z,15.55
2023-01-25T22:24:17.937Z,14.38
2023-01-25T22:27:03.200Z,16.73
2023-01-25T22:29:30.802Z,16.35
2023-01-25T22:31:58.183Z,15.07
2023-01-25T22:34:25.305Z,15.38
2023-01-25T22:36:52.312Z,12.63
2023-01-25T22:39:19.295Z,13.88
2023-01-25T22:41:46.347Z,13.10
2023-01-25T22:44:14.749Z,14.60
2023-01-25T22:46:41.778Z,15.05
2023-01-25T22:49:09.178Z,9.57
2023-01-25T22:51:36.227Z,15.20
2023-01-25T22:54:03.260Z,17.35
2023-01-25T22:56:32.250Z,14.95
2023-01-25T22:59:00.697Z,13.32
2023-01-25T23:01:33.221Z,10.52
2023-01-25T23:04:01.608Z,15.23
2023-01-25T23:06:30.529Z,15.20
2023-01-25T23:09:00.164Z,18.92
2023-01-25T23:11:37.359Z,16.88
2023-01-25T23:14:25.287Z,16.85
2023-01-25T23:16:52.584Z,17.13
2023-01-25T23:19:19.750Z,14.90
2023-01-25T23:21:46.787Z,17.42
2023-01-25T23:24:13.816Z,16.15
2023-01-25T23:26:46.508Z,12.10
2023-01-25T23:29:14.557Z,14.10
2023-01-25T23:31:42.072Z,13.50
2023-01-25T23:34:11.685Z,16.20
2023-01-25T23:36:39.716Z,14.02
2023-01-25T23:39:06.730Z,18.00
2023-01-25T23:41:34.133Z,15.02
2023-01-25T23:44:02.049Z,13.27
2023-01-25T23:46:29.620Z,13.70
2023-01-25T23:48:56.757Z,12.82
2023-01-25T23:51:23.785Z,14.00
2023-01-25T23:53:50.899Z,15.35
2023-01-25T23:56:20.260Z,18.50
2023-01-25T23:58:48.119Z,16.25
